Big Bear Station Historical Data
Daily Summary for January 8, 2019 Units:  English    Metric   Both
Next Day »
Daily Weekly Monthly Yearly Custom
  High: Low: Average:
Temperature: 45.7 °F 22.8 °F 34 °F
Dew Point: 34.4 °F 22.1 °F 28.2 °F
Humidity: 97% 56% 81%
Wind Speed: 9.4mph 0.0mph 1.1mph
Wind Gust: -999.0mph - -
Wind- - SW
Pressure: 23.60 in 23.51 in -
Precipitation: 0.42 in    
Historical Graphs
 
 
Tabular Data for January 8, 2019
Time Temperature Dew Point Pressure Wind Wind Speed Wind Gust Humidity Rainfall Rate (Hourly)
00:03 25.3 °F 24.6 °F 23.59 in Calm   -999.0 mph 97% 0.00 in
00:18 25.0 °F 24.3 °F 23.59 in Calm   -999.0 mph 97% 0.00 in
00:34 24.8 °F 24.1 °F 23.59 in Calm   -999.0 mph 97% 0.00 in
00:49 25.0 °F 24.3 °F 23.59 in Calm   -999.0 mph 97% 0.00 in
01:04 24.6 °F 23.9 °F 23.60 in Calm   -999.0 mph 97% 0.00 in
01:19 24.4 °F 23.7 °F 23.60 in Calm   -999.0 mph 97% 0.00 in
01:34 24.4 °F 23.7 °F 23.60 in Calm   -999.0 mph 97% 0.00 in
01:50 24.3 °F 23.6 °F 23.60 in Calm   -999.0 mph 97% 0.00 in
02:05 24.1 °F 23.4 °F 23.60 in Calm   -999.0 mph 97% 0.00 in
02:20 23.7 °F 23.0 °F 23.60 in Calm   -999.0 mph 97% 0.00 in
02:35 23.7 °F 23.0 °F 23.60 in Calm   -999.0 mph 97% 0.00 in
02:50 23.5 °F 22.8 °F 23.59 in Calm   -999.0 mph 97% 0.00 in
03:06 23.5 °F 22.8 °F 23.59 in Calm   -999.0 mph 97% 0.00 in
03:21 23.5 °F 22.8 °F 23.58 in Calm   -999.0 mph 97% 0.00 in
03:36 23.4 °F 22.7 °F 23.58 in Calm   -999.0 mph 97% 0.00 in
03:51 23.4 °F 22.7 °F 23.58 in Calm   -999.0 mph 97% 0.00 in
04:06 23.4 °F 22.7 °F 23.58 in Calm   -999.0 mph 97% 0.00 in
04:22 23.4 °F 22.7 °F 23.57 in Calm   -999.0 mph 97% 0.00 in
04:37 23.7 °F 23.0 °F 23.57 in Calm   -999.0 mph 97% 0.00 in
04:52 23.2 °F 22.5 °F 23.57 in Calm   -999.0 mph 97% 0.00 in
05:07 23.2 °F 22.5 °F 23.57 in Calm   -999.0 mph 97% 0.00 in
05:22 23.4 °F 22.7 °F 23.57 in Calm   -999.0 mph 97% 0.00 in
05:38 23.2 °F 22.5 °F 23.57 in Calm   -999.0 mph 97% 0.00 in
05:53 23.2 °F 22.5 °F 23.57 in Calm   -999.0 mph 97% 0.00 in
06:08 23.2 °F 22.5 °F 23.57 in Calm   -999.0 mph 97% 0.00 in
06:23 23.2 °F 22.5 °F 23.57 in Calm   -999.0 mph 97% 0.00 in
06:39 23.4 °F 22.7 °F 23.57 in Calm   -999.0 mph 97% 0.00 in
06:54 23.0 °F 22.3 °F 23.57 in Calm   -999.0 mph 97% 0.00 in
07:09 22.8 °F 22.1 °F 23.57 in Calm   -999.0 mph 97% 0.00 in
07:24 23.0 °F 22.3 °F 23.57 in Calm   -999.0 mph 97% 0.00 in
07:39 23.0 °F 22.3 °F 23.57 in Calm   -999.0 mph 97% 0.00 in
07:55 23.2 °F 22.2 °F 23.57 in Calm   -999.0 mph 96% 0.00 in
08:10 24.3 °F 23.3 °F 23.57 in Calm   -999.0 mph 96% 0.00 in
08:25 25.0 °F 24.0 °F 23.57 in Calm   -999.0 mph 96% 0.00 in
08:40 25.3 °F 24.3 °F 23.58 in Calm   -999.0 mph 96% 0.00 in
08:55 25.9 °F 24.9 °F 23.58 in Calm   -999.0 mph 96% 0.00 in
09:11 27.0 °F 26.0 °F 23.58 in Calm   -999.0 mph 96% 0.00 in
09:26 28.8 °F 27.8 °F 23.58 in Calm   -999.0 mph 96% 0.00 in
09:41 30.4 °F 29.4 °F 23.58 in Calm   -999.0 mph 96% 0.00 in
09:56 32.0 °F 31.0 °F 23.58 in Calm   -999.0 mph 96% 0.00 in
10:11 36.1 °F 33.2 °F 23.57 in Calm   -999.0 mph 89% 0.00 in
10:27 38.5 °F 34.4 °F 23.57 in Calm   -999.0 mph 85% 0.00 in
10:42 43.0 °F 30.5 °F 23.57 in SE 1.1 mph -999.0 mph 61% 0.00 in
10:57 43.5 °F 28.8 °F 23.56 in NE 4.2 mph -999.0 mph 56% 0.00 in
11:12 43.9 °F 29.2 °F 23.56 in West 4.7 mph -999.0 mph 56% 0.00 in
11:27 44.2 °F 29.9 °F 23.55 in NNW 2.7 mph -999.0 mph 57% 0.00 in
11:43 43.9 °F 30.5 °F 23.54 in NW 3.7 mph -999.0 mph 59% 0.00 in
11:58 43.5 °F 30.9 °F 23.54 in Calm   -999.0 mph 61% 0.00 in
12:13 45.0 °F 31.9 °F 23.54 in NNE 2.7 mph -999.0 mph 60% 0.00 in
12:28 44.4 °F 31.8 °F 23.53 in NNW 3.2 mph -999.0 mph 61% 0.00 in
12:43 44.1 °F 31.9 °F 23.53 in NNW 4.2 mph -999.0 mph 62% 0.00 in
12:59 44.6 °F 32.8 °F 23.53 in Calm   -999.0 mph 63% 0.00 in
13:14 45.7 °F 33.0 °F 23.52 in Calm   -999.0 mph 61% 0.00 in
13:29 45.0 °F 32.8 °F 23.51 in SW 1.1 mph -999.0 mph 62% 0.00 in
13:45 44.4 °F 32.6 °F 23.52 in WNW 9.4 mph -999.0 mph 63% 0.00 in
14:00 45.0 °F 33.6 °F 23.52 in NNW 4.2 mph -999.0 mph 64% 0.00 in
14:15 44.8 °F 34.1 °F 23.52 in North 6.8 mph -999.0 mph 66% 0.00 in
14:30 44.4 °F 34.1 °F 23.52 in Calm   -999.0 mph 67% 0.00 in
14:45 45.0 °F 33.2 °F 23.51 in Calm   -999.0 mph 63% 0.00 in
15:01 45.3 °F 33.0 °F 23.51 in Calm   -999.0 mph 62% 0.00 in
15:16 45.0 °F 33.6 °F 23.51 in NNE 1.7 mph -999.0 mph 64% 0.00 in
15:31 44.1 °F 33.8 °F 23.52 in NW 1.7 mph -999.0 mph 67% 0.00 in
15:46 43.7 °F 33.5 °F 23.51 in Calm   -999.0 mph 67% 0.00 in
16:02 43.2 °F 33.4 °F 23.52 in Calm   -999.0 mph 68% 0.00 in
16:17 42.8 °F 33.3 °F 23.52 in West 1.1 mph -999.0 mph 69% 0.00 in
16:32 41.5 °F 33.5 °F 23.52 in Calm   -999.0 mph 73% 0.00 in
16:47 40.5 °F 32.9 °F 23.52 in Calm   -999.0 mph 74% 0.00 in
17:02 39.4 °F 32.5 °F 23.53 in Calm   -999.0 mph 76% 0.00 in
17:18 38.7 °F 32.4 °F 23.53 in Calm   -999.0 mph 78% 0.00 in
17:33 38.1 °F 32.5 °F 23.53 in Calm   -999.0 mph 80% 0.00 in
17:48 37.8 °F 32.5 °F 23.53 in Calm   -999.0 mph 81% 0.00 in
18:03 37.4 °F 32.4 °F 23.54 in Calm   -999.0 mph 82% 0.00 in
18:18 36.9 °F 32.2 °F 23.53 in Calm   -999.0 mph 83% 0.00 in
18:34 36.1 °F 31.7 °F 23.54 in Calm   -999.0 mph 84% 0.00 in
18:49 35.6 °F 31.5 °F 23.54 in Calm   -999.0 mph 85% 0.00 in
19:04 35.2 °F 31.4 °F 23.53 in Calm   -999.0 mph 86% 0.00 in
19:19 35.2 °F 31.7 °F 23.54 in Calm   -999.0 mph 87% 0.00 in
19:34 34.9 °F 31.4 °F 23.53 in Calm   -999.0 mph 87% 0.00 in
19:50 35.8 °F 31.7 °F 23.53 in Calm   -999.0 mph 85% 0.00 in
20:05 37.9 °F 31.7 °F 23.53 in South 4.2 mph -999.0 mph 78% 0.00 in
20:20 41.0 °F 31.6 °F 23.53 in SE 4.7 mph -999.0 mph 69% 0.00 in
20:35 40.6 °F 31.2 °F 23.53 in SSW 3.2 mph -999.0 mph 69% 0.00 in
20:51 41.2 °F 31.8 °F 23.53 in SW 2.7 mph -999.0 mph 69% 0.00 in
21:06 40.5 °F 31.1 °F 23.53 in SSE 3.7 mph -999.0 mph 69% 0.00 in
21:21 39.9 °F 30.2 °F 23.53 in NE 1.1 mph -999.0 mph 68% 0.00 in
21:36 39.6 °F 28.0 °F 23.54 in West 5.3 mph -999.0 mph 63% 0.00 in
21:51 39.4 °F 27.1 °F 23.54 in SE 1.7 mph -999.0 mph 61% 0.00 in
22:07 39.0 °F 26.7 °F 23.55 in NE 2.7 mph -999.0 mph 61% 0.00 in
22:22 38.3 °F 26.8 °F 23.55 in NNW 1.7 mph -999.0 mph 63% 0.00 in
22:37 38.3 °F 28.7 °F 23.54 in Calm   -999.0 mph 68% 0.00 in
22:52 39.4 °F 29.7 °F 23.54 in NNW 3.7 mph -999.0 mph 68% 0.00 in
23:08 39.9 °F 29.8 °F 23.54 in WNW 5.8 mph -999.0 mph 67% 0.00 in
23:24 39.9 °F 30.2 °F 23.54 in Calm   -999.0 mph 68% 0.00 in
23:39 39.9 °F 30.2 °F 23.53 in West 3.2 mph -999.0 mph 68% 0.00 in
23:54 39.6 °F 29.5 °F 23.53 in NNW 5.3 mph -999.0 mph 67% 0.00 in
Big Bear CA Weather